createdAt,value
2022-12-11T00:00:52.411Z,4.04
2022-12-11T00:03:19.652Z,3.54
2022-12-11T00:05:46.915Z,3.76
2022-12-11T00:08:15.547Z,3.84
2022-12-11T00:10:49.754Z,3.97
2022-12-11T00:13:16.632Z,3.83
2022-12-11T00:15:43.495Z,3.72
2022-12-11T00:18:14.228Z,4.13
2022-12-11T00:20:41.791Z,3.90
2022-12-11T00:23:09.234Z,4.11
2022-12-11T00:25:41.131Z,4.44
2022-12-11T00:28:08.005Z,4.59
2022-12-11T00:30:34.899Z,4.65
2022-12-11T00:33:02.165Z,4.46
2022-12-11T00:35:29.114Z,4.63
2022-12-11T00:37:56.025Z,4.70
2022-12-11T00:40:23.674Z,4.66
2022-12-11T00:42:50.529Z,4.72
2022-12-11T00:45:17.409Z,4.56
2022-12-11T00:47:44.489Z,4.39
2022-12-11T00:50:12.233Z,4.58
2022-12-11T00:52:40.766Z,4.49
2022-12-11T00:55:07.967Z,4.61
2022-12-11T00:57:35.679Z,4.58
2022-12-11T01:00:06.782Z,4.47
2022-12-11T01:02:34.398Z,4.45
2022-12-11T01:05:01.466Z,4.50
2022-12-11T01:07:28.809Z,4.42
2022-12-11T01:10:14.209Z,4.53
2022-12-11T01:12:41.277Z,4.40
2022-12-11T01:15:08.957Z,4.55
2022-12-11T01:17:36.055Z,4.46
2022-12-11T01:20:04.190Z,4.70
2022-12-11T01:22:31.667Z,4.65
2022-12-11T01:24:59.173Z,4.55
2022-12-11T01:27:26.527Z,4.56
2022-12-11T01:29:53.410Z,4.61
2022-12-11T01:32:20.325Z,4.63
2022-12-11T01:34:47.802Z,4.51
2022-12-11T01:37:15.064Z,4.51
2022-12-11T01:39:42.009Z,4.62
2022-12-11T01:42:19.397Z,4.59
2022-12-11T01:44:46.119Z,4.50
2022-12-11T01:47:13.680Z,4.61
2022-12-11T01:49:41.767Z,4.63
2022-12-11T01:52:19.533Z,4.82
2022-12-11T01:54:48.043Z,4.87
2022-12-11T01:57:16.144Z,4.52
2022-12-11T01:59:46.002Z,4.67
2022-12-11T02:02:21.803Z,4.80
2022-12-11T02:04:49.703Z,4.70
2022-12-11T02:07:17.021Z,4.75
2022-12-11T02:09:46.763Z,4.74
2022-12-11T02:12:34.367Z,4.76
2022-12-11T02:15:35.597Z,4.62
2022-12-11T02:18:40.270Z,4.73
2022-12-11T02:21:20.931Z,4.86
2022-12-11T02:24:12.716Z,4.84
2022-12-11T02:27:29.210Z,4.91
2022-12-11T02:30:01.748Z,4.93
2022-12-11T02:32:53.895Z,4.83
2022-12-11T02:35:31.689Z,4.77
2022-12-11T02:38:08.929Z,4.75
2022-12-11T02:40:39.984Z,4.78
2022-12-11T02:43:10.422Z,4.78
2022-12-11T02:45:40.737Z,4.89
2022-12-11T02:48:09.859Z,4.80
2022-12-11T02:50:42.770Z,4.83
2022-12-11T02:53:12.458Z,4.80
2022-12-11T02:55:42.991Z,4.74
2022-12-11T02:58:30.208Z,4.84
2022-12-11T03:00:57.201Z,4.77
2022-12-11T03:03:24.566Z,4.78
2022-12-11T03:05:51.469Z,4.69
2022-12-11T03:08:18.530Z,4.69
2022-12-11T03:10:46.173Z,4.72
2022-12-11T03:13:16.817Z,4.41
2022-12-11T03:16:30.478Z,4.69
2022-12-11T03:19:35.699Z,4.59
2022-12-11T03:22:17.212Z,4.56
2022-12-11T03:25:13.245Z,4.67
2022-12-11T03:28:07.377Z,4.41
2022-12-11T03:30:37.270Z,4.33
2022-12-11T03:33:11.992Z,4.52
2022-12-11T03:35:48.975Z,4.51
2022-12-11T03:38:37.198Z,4.61
2022-12-11T03:41:07.161Z,4.52
2022-12-11T03:43:35.411Z,4.00
2022-12-11T03:46:02.974Z,3.36
2022-12-11T03:48:34.612Z,3.27
2022-12-11T03:51:05.429Z,2.63
2022-12-11T03:53:35.338Z,2.16
2022-12-11T03:56:04.668Z,3.59
2022-12-11T03:58:31.813Z,4.07
2022-12-11T04:00:58.819Z,4.16
2022-12-11T04:03:26.017Z,4.34
2022-12-11T04:05:55.086Z,4.33
2022-12-11T04:08:23.109Z,4.40
2022-12-11T04:11:11.034Z,4.51
2022-12-11T04:13:39.015Z,4.38
2022-12-11T04:16:06.655Z,4.35
2022-12-11T04:18:59.886Z,4.28
2022-12-11T04:21:45.701Z,4.49
2022-12-11T04:24:15.735Z,4.47
2022-12-11T04:26:47.503Z,4.39
2022-12-11T04:29:15.360Z,4.36
2022-12-11T04:31:42.255Z,4.21
2022-12-11T04:34:09.328Z,4.46
2022-12-11T04:36:36.192Z,4.25
2022-12-11T04:39:05.758Z,4.46
2022-12-11T04:41:34.085Z,4.36
2022-12-11T04:44:01.518Z,4.56
2022-12-11T04:46:28.447Z,4.48
2022-12-11T04:48:57.840Z,4.38
2022-12-11T04:51:25.902Z,4.60
2022-12-11T04:53:53.549Z,4.67
2022-12-11T04:56:21.267Z,4.62
2022-12-11T04:58:48.671Z,4.46
2022-12-11T05:01:21.540Z,4.54
2022-12-11T05:03:49.081Z,4.58
2022-12-11T05:06:16.007Z,4.41
2022-12-11T05:08:43.761Z,4.52
2022-12-11T05:11:13.327Z,4.61
2022-12-11T05:13:40.621Z,4.54
2022-12-11T05:16:10.917Z,4.62
2022-12-11T05:18:38.295Z,4.53
2022-12-11T05:21:11.767Z,4.72
2022-12-11T05:23:39.305Z,4.52
2022-12-11T05:26:11.282Z,4.43
2022-12-11T05:28:39.746Z,4.58
2022-12-11T05:31:12.809Z,4.42
2022-12-11T05:33:39.943Z,4.32
2022-12-11T05:36:08.355Z,4.52
2022-12-11T05:38:35.582Z,4.61
2022-12-11T05:41:06.082Z,4.69
2022-12-11T05:43:35.851Z,4.21
2022-12-11T05:46:13.399Z,4.04
2022-12-11T05:48:41.614Z,4.07
2022-12-11T05:51:09.074Z,4.13
2022-12-11T05:53:37.491Z,4.35
2022-12-11T05:56:08.490Z,4.35
2022-12-11T05:58:35.677Z,4.43
2022-12-11T06:01:06.598Z,4.41
2022-12-11T06:03:33.872Z,3.89
2022-12-11T06:06:05.901Z,4.18
2022-12-11T06:08:33.664Z,4.23
2022-12-11T06:11:00.897Z,4.28
2022-12-11T06:13:28.169Z,4.30
2022-12-11T06:15:55.547Z,4.36
2022-12-11T06:18:22.816Z,4.29
2022-12-11T06:20:49.695Z,4.24
2022-12-11T06:23:16.631Z,4.28
2022-12-11T06:25:43.535Z,4.39
2022-12-11T06:28:11.641Z,4.45
2022-12-11T06:30:39.666Z,4.42
2022-12-11T06:33:07.175Z,4.45
2022-12-11T06:35:41.397Z,4.45
2022-12-11T06:38:10.703Z,4.47
2022-12-11T06:40:38.370Z,4.45
2022-12-11T06:43:05.526Z,4.36
2022-12-11T06:45:32.882Z,4.41
2022-12-11T06:48:00.053Z,4.47
2022-12-11T06:50:27.149Z,4.52
2022-12-11T06:52:55.601Z,4.52
2022-12-11T06:55:23.304Z,4.49
2022-12-11T06:57:50.232Z,4.44
2022-12-11T07:00:17.290Z,4.55
2022-12-11T07:02:44.565Z,4.51
2022-12-11T07:05:11.724Z,4.52
2022-12-11T07:07:39.237Z,4.53
2022-12-11T07:10:08.616Z,4.47
2022-12-11T07:12:36.465Z,4.50
2022-12-11T07:15:05.222Z,4.52
2022-12-11T07:17:32.182Z,4.53
2022-12-11T07:19:59.470Z,4.58
2022-12-11T07:22:26.992Z,4.52
2022-12-11T07:24:54.224Z,4.54
2022-12-11T07:27:21.244Z,4.56
2022-12-11T07:29:48.176Z,4.63
2022-12-11T07:32:15.534Z,4.66
2022-12-11T07:34:47.244Z,4.63
2022-12-11T07:37:17.678Z,4.62
2022-12-11T07:39:44.739Z,4.50
2022-12-11T07:42:11.818Z,4.46
2022-12-11T07:44:38.735Z,4.55
2022-12-11T07:47:06.020Z,4.53
2022-12-11T07:49:33.314Z,4.50
2022-12-11T07:52:00.775Z,4.51
2022-12-11T07:54:28.248Z,4.54
2022-12-11T07:56:55.518Z,4.50
2022-12-11T07:59:22.614Z,4.55
2022-12-11T08:01:49.497Z,4.48
2022-12-11T08:04:16.794Z,4.60
2022-12-11T08:06:44.261Z,4.58
2022-12-11T08:09:20.692Z,4.55
2022-12-11T08:11:52.257Z,4.51
2022-12-11T08:14:19.879Z,4.46
2022-12-11T08:16:47.110Z,4.46
2022-12-11T08:19:15.279Z,4.46
2022-12-11T08:21:42.661Z,4.49
2022-12-11T08:24:10.331Z,4.57
2022-12-11T08:26:37.323Z,4.66
2022-12-11T08:29:04.252Z,4.62
2022-12-11T08:31:33.590Z,4.50
2022-12-11T08:34:00.689Z,4.50
2022-12-11T08:36:28.414Z,4.43
2022-12-11T08:38:56.783Z,4.72
2022-12-11T08:41:30.060Z,4.80
2022-12-11T08:44:00.184Z,4.67
2022-12-11T08:46:30.442Z,4.54
2022-12-11T08:48:58.542Z,4.60
2022-12-11T08:51:27.944Z,4.74
2022-12-11T08:54:00.353Z,4.69
2022-12-11T08:56:29.038Z,4.66
2022-12-11T08:58:56.591Z,4.56
2022-12-11T09:01:27.797Z,4.70
2022-12-11T09:03:56.863Z,4.80
2022-12-11T09:06:26.604Z,4.45
2022-12-11T09:08:54.702Z,4.71
2022-12-11T09:11:25.795Z,4.65
2022-12-11T09:13:53.680Z,4.62
2022-12-11T09:16:24.640Z,4.08
2022-12-11T09:18:53.817Z,2.83
2022-12-11T09:21:24.804Z,2.43
2022-12-11T09:23:58.377Z,2.23
2022-12-11T09:26:26.731Z,2.81
2022-12-11T09:28:54.781Z,3.35
2022-12-11T09:31:26.515Z,3.07
2022-12-11T09:33:56.984Z,2.91
2022-12-11T09:36:24.653Z,2.65
2022-12-11T09:38:52.122Z,3.22
2022-12-11T09:41:35.182Z,2.02
2022-12-11T09:44:06.373Z,3.36
2022-12-11T09:46:35.887Z,3.61
2022-12-11T09:49:05.206Z,3.79
2022-12-11T09:51:46.844Z,3.95
2022-12-11T09:54:15.014Z,4.22
2022-12-11T09:57:00.084Z,4.54
2022-12-11T09:59:40.668Z,4.43
2022-12-11T10:02:43.880Z,4.62
2022-12-11T10:05:37.091Z,4.54
2022-12-11T10:08:29.261Z,4.11
2022-12-11T10:11:19.410Z,4.52
2022-12-11T10:14:06.578Z,4.62
2022-12-11T10:16:45.819Z,3.98
2022-12-11T10:19:22.095Z,4.16
2022-12-11T10:21:51.165Z,4.29
2022-12-11T10:24:59.335Z,4.31
2022-12-11T10:27:19.065Z,4.38
2022-12-11T10:29:48.118Z,4.37
2022-12-11T10:32:30.779Z,4.36
2022-12-11T10:35:05.564Z,4.59
2022-12-11T10:37:32.919Z,4.55
2022-12-11T10:39:59.807Z,4.40
2022-12-11T10:42:27.477Z,4.49
2022-12-11T10:45:04.413Z,4.66
2022-12-11T10:47:33.328Z,4.72
2022-12-11T10:50:03.421Z,4.86
2022-12-11T10:52:44.600Z,4.81
2022-12-11T10:55:44.591Z,4.56
2022-12-11T10:58:20.340Z,4.58
2022-12-11T11:00:49.360Z,4.72
2022-12-11T11:03:26.118Z,4.78
2022-12-11T11:06:23.861Z,4.78
2022-12-11T11:08:57.557Z,4.95
2022-12-11T11:11:38.126Z,4.86
2022-12-11T11:14:17.887Z,4.64
2022-12-11T11:16:50.524Z,4.18
2022-12-11T11:19:30.471Z,4.66
2022-12-11T11:22:05.476Z,4.87
2022-12-11T11:24:52.363Z,4.87
2022-12-11T11:27:27.181Z,4.75
2022-12-11T11:30:02.873Z,4.76
2022-12-11T11:32:43.177Z,4.79
2022-12-11T11:35:25.818Z,4.63
2022-12-11T11:38:09.132Z,4.63
2022-12-11T11:41:07.609Z,4.61
2022-12-11T11:43:51.330Z,4.59
2022-12-11T11:46:27.895Z,4.50
2022-12-11T11:49:06.179Z,4.50
2022-12-11T11:51:53.368Z,4.80
2022-12-11T11:54:34.653Z,4.59
2022-12-11T11:57:35.636Z,4.55
2022-12-11T12:00:15.796Z,4.50
2022-12-11T12:02:43.218Z,4.56
2022-12-11T12:05:13.847Z,4.58
2022-12-11T12:08:07.427Z,4.49
2022-12-11T12:10:40.712Z,4.42
2022-12-11T12:16:52.251Z,4.30
2022-12-11T12:20:03.779Z,4.58
2022-12-11T12:23:01.420Z,4.76
2022-12-11T12:25:52.606Z,4.73
2022-12-11T12:29:07.402Z,4.70
2022-12-11T12:32:13.692Z,4.95
2022-12-11T12:35:04.351Z,4.70
2022-12-11T12:38:05.650Z,4.97
2022-12-11T12:40:59.126Z,4.76
2022-12-11T12:44:14.533Z,5.01
2022-12-11T12:47:07.926Z,4.82
2022-12-11T12:49:41.294Z,4.39
2022-12-11T12:52:17.950Z,4.30
2022-12-11T12:55:09.008Z,4.54
2022-12-11T12:57:38.613Z,4.69
2022-12-11T13:00:13.023Z,4.62
2022-12-11T13:02:50.928Z,4.66
2022-12-11T13:05:32.823Z,3.46
2022-12-11T13:08:04.628Z,3.30
2022-12-11T13:10:35.227Z,3.93
2022-12-11T13:13:04.957Z,4.40
2022-12-11T13:15:36.429Z,4.35
2022-12-11T13:18:31.129Z,4.69
2022-12-11T13:20:58.045Z,4.27
2022-12-11T13:23:35.914Z,3.98
2022-12-11T13:26:04.631Z,4.43
2022-12-11T13:28:40.517Z,4.76
2022-12-11T13:31:37.614Z,4.59
2022-12-11T13:34:20.762Z,4.70
2022-12-11T13:36:53.999Z,4.71
2022-12-11T13:39:27.404Z,4.52
2022-12-11T13:42:02.756Z,4.73
2022-12-11T13:44:38.896Z,4.58
2022-12-11T13:47:12.087Z,4.87
2022-12-11T13:49:42.352Z,4.46
2022-12-11T13:52:19.896Z,4.12
2022-12-11T13:54:53.261Z,3.78
2022-12-11T13:57:28.618Z,4.06
2022-12-11T13:59:58.057Z,4.27
2022-12-11T14:02:38.182Z,4.36
2022-12-11T14:05:17.735Z,4.47
2022-12-11T14:07:58.899Z,4.46
2022-12-11T14:10:27.897Z,4.57
2022-12-11T14:13:31.670Z,4.69
2022-12-11T14:15:58.950Z,4.36
2022-12-11T14:18:30.317Z,4.38
2022-12-11T14:21:04.266Z,4.28
2022-12-11T14:23:36.639Z,4.38
2022-12-11T14:26:04.804Z,4.69
2022-12-11T14:28:38.830Z,4.36
2022-12-11T14:31:06.534Z,4.13
2022-12-11T14:33:42.856Z,4.72
2022-12-11T14:36:10.657Z,4.66
2022-12-11T14:39:07.454Z,4.29
2022-12-11T14:42:00.849Z,4.22
2022-12-11T14:44:32.564Z,4.33
2022-12-11T14:47:04.451Z,4.55
2022-12-11T14:49:46.604Z,4.16
2022-12-11T14:52:41.737Z,4.41
2022-12-11T14:55:29.276Z,4.32
2022-12-11T14:58:01.758Z,4.34
2022-12-11T15:00:35.730Z,4.38
2022-12-11T15:03:17.837Z,4.40
2022-12-11T15:05:55.026Z,4.30
2022-12-11T15:08:26.336Z,4.29
2022-12-11T15:11:06.053Z,4.41
2022-12-11T15:13:35.101Z,4.27
2022-12-11T15:16:03.977Z,4.13
2022-12-11T15:18:35.037Z,4.22
2022-12-11T15:21:07.052Z,4.17
2022-12-11T15:23:53.495Z,4.42
2022-12-11T15:26:32.663Z,4.21
2022-12-11T15:29:01.969Z,4.21
2022-12-11T15:31:32.646Z,4.33
2022-12-11T15:34:02.248Z,4.22
2022-12-11T15:36:35.890Z,4.30
2022-12-11T15:39:08.512Z,4.40
2022-12-11T15:41:35.915Z,4.28
2022-12-11T15:44:04.679Z,4.38
2022-12-11T15:46:36.460Z,4.49
2022-12-11T15:49:12.731Z,4.54
2022-12-11T15:51:43.025Z,4.30
2022-12-11T15:54:10.462Z,4.35
2022-12-11T15:56:37.916Z,4.40
2022-12-11T15:59:06.993Z,4.45
2022-12-11T16:01:35.241Z,4.45
2022-12-11T16:04:05.232Z,4.41
2022-12-11T16:06:33.346Z,4.40
2022-12-11T16:09:01.224Z,4.29
2022-12-11T16:11:28.132Z,4.31
2022-12-11T16:13:55.428Z,4.25
2022-12-11T16:16:23.002Z,4.27
2022-12-11T16:18:51.338Z,4.30
2022-12-11T16:21:21.519Z,4.42
2022-12-11T16:23:48.908Z,4.31
2022-12-11T16:26:15.848Z,4.36
2022-12-11T16:28:43.525Z,4.52
2022-12-11T16:31:12.920Z,4.61
2022-12-11T16:33:40.428Z,4.65
2022-12-11T16:36:19.015Z,4.74
2022-12-11T16:38:53.138Z,4.67
2022-12-11T16:41:21.199Z,4.99
2022-12-11T16:43:48.208Z,5.08
2022-12-11T16:46:20.472Z,5.19
2022-12-11T16:48:48.146Z,4.66
2022-12-11T16:51:15.953Z,4.64
2022-12-11T16:53:42.905Z,4.64
2022-12-11T16:56:10.654Z,4.59
2022-12-11T16:58:37.927Z,4.53
2022-12-11T17:01:14.859Z,4.64
2022-12-11T17:03:43.253Z,4.59
2022-12-11T17:06:14.422Z,4.76
2022-12-11T17:08:42.874Z,4.72
2022-12-11T17:11:17.001Z,4.75
2022-12-11T17:13:44.485Z,4.69
2022-12-11T17:16:15.462Z,4.78
2022-12-11T17:18:43.289Z,4.63
2022-12-11T17:21:16.222Z,4.69
2022-12-11T17:23:44.465Z,4.64
2022-12-11T17:26:11.581Z,4.51
2022-12-11T17:28:39.761Z,4.54
2022-12-11T17:31:17.924Z,4.75
2022-12-11T17:33:46.321Z,4.63
2022-12-11T17:36:16.945Z,4.61
2022-12-11T17:38:44.151Z,4.56
2022-12-11T17:41:19.820Z,4.66
2022-12-11T17:43:49.889Z,4.76
2022-12-11T17:46:17.243Z,4.67
2022-12-11T17:48:44.416Z,4.72
2022-12-11T17:51:14.457Z,4.69
2022-12-11T17:53:41.362Z,4.62
2022-12-11T17:56:08.987Z,4.62
2022-12-11T17:58:36.319Z,4.51
2022-12-11T18:01:09.376Z,4.60
2022-12-11T18:03:37.979Z,4.61
2022-12-11T18:06:10.111Z,4.61
2022-12-11T18:08:37.974Z,4.55
2022-12-11T18:11:07.159Z,4.50
2022-12-11T18:13:34.698Z,4.47
2022-12-11T18:16:24.882Z,4.67
2022-12-11T18:18:52.444Z,4.58
2022-12-11T18:21:27.079Z,4.40
2022-12-11T18:23:54.605Z,4.56
2022-12-11T18:26:23.215Z,4.51
2022-12-11T18:28:51.991Z,4.46
2022-12-11T18:31:20.520Z,4.20
2022-12-11T18:33:48.101Z,4.32
2022-12-11T18:36:17.446Z,3.87
2022-12-11T18:38:44.520Z,3.87
2022-12-11T18:41:13.244Z,4.15
2022-12-11T18:43:41.694Z,4.27
2022-12-11T18:46:12.651Z,4.28
2022-12-11T18:48:40.300Z,4.38
2022-12-11T18:51:13.819Z,4.35
2022-12-11T18:53:41.614Z,4.41
2022-12-11T18:56:16.471Z,4.44
2022-12-11T18:58:46.697Z,4.34
2022-12-11T19:01:29.000Z,3.99
2022-12-11T19:04:04.264Z,4.36
2022-12-11T19:06:35.483Z,4.44
2022-12-11T19:09:05.854Z,3.98
2022-12-11T19:11:34.696Z,4.17
2022-12-11T19:14:01.831Z,3.13
2022-12-11T19:16:36.624Z,3.99
2022-12-11T19:19:13.919Z,4.24
2022-12-11T19:21:42.003Z,4.68
2022-12-11T19:24:14.864Z,4.73
2022-12-11T19:26:42.573Z,4.29
2022-12-11T19:29:10.157Z,4.30
2022-12-11T19:31:37.739Z,4.36
2022-12-11T19:34:04.752Z,4.35
2022-12-11T19:36:33.534Z,4.36
2022-12-11T19:39:03.487Z,4.50
2022-12-11T19:41:32.446Z,4.42
2022-12-11T19:44:00.049Z,4.06
2022-12-11T19:46:28.637Z,4.23
2022-12-11T19:48:57.557Z,4.34
2022-12-11T19:51:33.555Z,4.40
2022-12-11T19:54:04.651Z,4.37
2022-12-11T19:56:33.764Z,4.34
2022-12-11T19:59:09.121Z,4.45
2022-12-11T20:01:38.052Z,4.33
2022-12-11T20:04:10.578Z,4.45
2022-12-11T20:06:41.388Z,4.02
2022-12-11T20:09:11.743Z,4.35
2022-12-11T20:11:43.904Z,4.41
2022-12-11T20:14:27.179Z,4.43
2022-12-11T20:17:13.831Z,4.42
2022-12-11T20:19:42.713Z,4.45
2022-12-11T20:22:10.372Z,4.45
2022-12-11T20:24:37.818Z,4.43
2022-12-11T20:27:05.229Z,4.36
2022-12-11T20:29:33.144Z,4.38
2022-12-11T20:32:00.661Z,4.45
2022-12-11T20:34:30.504Z,4.43
2022-12-11T20:36:57.996Z,4.42
2022-12-11T20:39:28.956Z,4.51
2022-12-11T20:41:56.083Z,4.45
2022-12-11T20:44:23.453Z,4.47
2022-12-11T20:46:50.889Z,4.41
2022-12-11T20:49:18.209Z,4.47
2022-12-11T20:51:45.203Z,4.05
2022-12-11T20:54:12.945Z,4.18
2022-12-11T20:56:40.869Z,4.10
2022-12-11T20:59:13.087Z,4.36
2022-12-11T21:01:40.899Z,4.37
2022-12-11T21:04:08.553Z,4.32
2022-12-11T21:06:38.995Z,4.33
2022-12-11T21:09:14.415Z,4.42
2022-12-11T21:11:41.531Z,3.45
2022-12-11T21:14:08.429Z,3.89
2022-12-11T21:16:36.954Z,4.14
2022-12-11T21:19:05.637Z,4.30
2022-12-11T21:21:36.728Z,4.36
2022-12-11T21:24:05.501Z,4.37
2022-12-11T21:26:33.030Z,4.40
2022-12-11T21:29:00.048Z,4.28
2022-12-11T21:31:27.932Z,4.43
2022-12-11T21:34:00.674Z,4.51
2022-12-11T21:36:27.567Z,4.35
2022-12-11T21:38:54.881Z,4.34
2022-12-11T21:41:26.774Z,4.40
2022-12-11T21:46:43.342Z,4.26
2022-12-11T21:49:10.649Z,3.78
2022-12-11T21:51:45.331Z,3.65
2022-12-11T21:54:16.589Z,3.93
2022-12-11T21:56:46.033Z,4.06
2022-12-11T21:59:13.588Z,3.94
2022-12-11T22:01:46.066Z,4.00
2022-12-11T22:04:14.799Z,4.13
2022-12-11T22:06:46.791Z,4.04
2022-12-11T22:09:15.594Z,3.82
2022-12-11T22:11:45.077Z,2.87
2022-12-11T22:14:14.819Z,3.65
2022-12-11T22:16:42.734Z,3.15
2022-12-11T22:19:10.221Z,3.33
2022-12-11T22:21:37.483Z,3.65
2022-12-11T22:24:07.794Z,3.10
2022-12-11T22:26:37.602Z,2.10
2022-12-11T22:29:04.559Z,2.60
2022-12-11T22:31:32.161Z,2.82
2022-12-11T22:34:00.189Z,3.26
2022-12-11T22:36:27.617Z,3.34
2022-12-11T22:38:55.213Z,3.45
2022-12-11T22:41:31.447Z,3.73
2022-12-11T22:43:59.782Z,2.71
2022-12-11T22:46:30.167Z,2.76
2022-12-11T22:48:58.668Z,3.58
2022-12-11T22:51:26.081Z,3.67
2022-12-11T22:53:53.398Z,3.82
2022-12-11T22:56:20.749Z,3.88
2022-12-11T22:58:48.214Z,2.99
2022-12-11T23:01:21.262Z,3.63
2022-12-11T23:03:48.980Z,3.74
2022-12-11T23:06:18.981Z,3.35
2022-12-11T23:08:46.359Z,3.73
2022-12-11T23:11:19.007Z,3.49
2022-12-11T23:13:45.962Z,3.03
2022-12-11T23:16:13.655Z,3.32
2022-12-11T23:18:40.994Z,3.43
2022-12-11T23:21:08.618Z,3.23
2022-12-11T23:23:35.849Z,3.76
2022-12-11T23:26:04.002Z,3.01
2022-12-11T23:28:31.463Z,3.28
2022-12-11T23:30:58.823Z,2.81
2022-12-11T23:33:26.424Z,3.86
2022-12-11T23:35:53.303Z,3.61
2022-12-11T23:38:20.453Z,3.21
2022-12-11T23:40:47.535Z,3.75
2022-12-11T23:43:14.840Z,3.81
2022-12-11T23:45:45.042Z,3.12
2022-12-11T23:48:13.218Z,3.50
2022-12-11T23:50:41.895Z,3.62
2022-12-11T23:53:09.529Z,3.70
2022-12-11T23:55:40.050Z,4.00
2022-12-11T23:58:07.674Z,3.93
